createdAt,value
2023-12-20T00:01:41.996Z,45.02
2023-12-20T00:04:10.015Z,44.98
2023-12-20T00:06:38.057Z,44.77
2023-12-20T00:09:06.018Z,44.97
2023-12-20T00:11:34.392Z,45.18
2023-12-20T00:14:02.243Z,44.85
2023-12-20T00:16:30.114Z,44.65
2023-12-20T00:18:58.073Z,44.77
2023-12-20T00:21:26.234Z,44.63
2023-12-20T00:23:54.133Z,44.09
2023-12-20T00:26:22.283Z,44.41
2023-12-20T00:28:50.463Z,44.40
2023-12-20T00:31:18.463Z,44.20
2023-12-20T00:33:48.642Z,44.50
2023-12-20T00:36:16.651Z,44.78
2023-12-20T00:38:44.828Z,44.47
2023-12-20T00:41:12.759Z,44.46
2023-12-20T00:43:40.588Z,44.67
2023-12-20T00:46:08.523Z,44.81
2023-12-20T00:48:36.484Z,44.90
2023-12-20T00:53:32.986Z,44.77
2023-12-20T00:56:00.940Z,44.63
2023-12-20T00:58:29.400Z,44.57
2023-12-20T01:00:57.608Z,44.82
2023-12-20T01:03:25.773Z,44.68
2023-12-20T01:05:53.775Z,44.42
2023-12-20T01:08:21.712Z,44.44
2023-12-20T01:10:49.624Z,44.81
2023-12-20T01:13:17.514Z,44.78
2023-12-20T01:15:45.481Z,44.73
2023-12-20T01:18:13.497Z,44.83
2023-12-20T01:20:41.980Z,44.74
2023-12-20T01:23:09.843Z,44.50
2023-12-20T01:25:37.911Z,44.44
2023-12-20T01:28:05.982Z,44.17
2023-12-20T01:30:33.965Z,44.43
2023-12-20T01:33:02.770Z,44.59
2023-12-20T01:35:30.704Z,44.48
2023-12-20T01:37:58.661Z,44.66
2023-12-20T01:40:26.757Z,44.78
2023-12-20T01:43:09.200Z,44.83
2023-12-20T01:45:37.261Z,45.01
2023-12-20T01:48:06.772Z,45.18
2023-12-20T01:50:37.603Z,45.21
2023-12-20T01:53:08.812Z,45.24
2023-12-20T01:55:39.895Z,45.30
2023-12-20T01:58:12.438Z,45.31
2023-12-20T02:00:40.944Z,45.57
2023-12-20T02:03:09.389Z,45.55
2023-12-20T02:05:56.523Z,45.44
2023-12-20T02:08:25.158Z,45.59
2023-12-20T02:10:56.977Z,45.57
2023-12-20T02:13:25.701Z,45.44
2023-12-20T02:15:55.274Z,45.37
2023-12-20T02:18:23.766Z,45.65
2023-12-20T02:20:51.723Z,45.61
2023-12-20T02:23:19.615Z,45.72
2023-12-20T02:25:47.478Z,45.64
2023-12-20T02:28:15.922Z,45.69
2023-12-20T02:30:43.870Z,45.44
2023-12-20T02:33:13.734Z,45.48
2023-12-20T02:35:41.630Z,45.84
2023-12-20T02:38:09.497Z,45.54
2023-12-20T02:40:37.412Z,45.34
2023-12-20T02:43:05.382Z,45.60
2023-12-20T02:45:33.671Z,45.62
2023-12-20T02:48:01.605Z,45.75
2023-12-20T02:50:29.558Z,45.78
2023-12-20T02:52:57.485Z,45.75
2023-12-20T02:55:25.576Z,45.76
2023-12-20T02:57:53.447Z,45.71
2023-12-20T03:00:21.286Z,45.71
2023-12-20T03:02:49.171Z,45.87
2023-12-20T03:05:17.186Z,46.03
2023-12-20T03:07:45.663Z,46.20
2023-12-20T03:10:20.072Z,47.80
2023-12-20T03:12:51.975Z,48.77
2023-12-20T03:15:19.853Z,48.68
2023-12-20T03:17:48.218Z,48.65
2023-12-20T03:20:16.260Z,48.29
2023-12-20T03:22:44.483Z,48.44
2023-12-20T03:25:12.458Z,48.58
2023-12-20T03:27:40.509Z,48.74
2023-12-20T03:30:09.129Z,48.81
2023-12-20T03:32:39.711Z,49.01
2023-12-20T03:35:07.649Z,49.33
2023-12-20T03:37:35.530Z,49.53
2023-12-20T03:40:04.597Z,50.28
2023-12-20T03:42:32.603Z,50.76
2023-12-20T03:45:00.544Z,51.27
2023-12-20T03:47:28.425Z,52.05
2023-12-20T03:49:56.370Z,52.34
2023-12-20T03:52:24.383Z,52.52
2023-12-20T03:54:52.380Z,53.67
2023-12-20T03:57:20.268Z,54.58
2023-12-20T03:59:48.416Z,55.60
2023-12-20T04:02:16.908Z,56.29
2023-12-20T04:04:45.156Z,57.80
2023-12-20T04:07:13.282Z,58.59
2023-12-20T04:09:42.389Z,60.78
2023-12-20T04:12:10.277Z,61.74
2023-12-20T04:14:38.161Z,63.39
2023-12-20T04:17:06.705Z,64.09
2023-12-20T04:19:34.796Z,66.10
2023-12-20T04:22:02.957Z,67.37
2023-12-20T04:24:30.792Z,68.85
2023-12-20T04:26:58.680Z,69.27
2023-12-20T04:29:26.538Z,69.30
2023-12-20T04:31:54.501Z,69.05
2023-12-20T04:34:23.512Z,71.99
2023-12-20T04:36:51.698Z,73.43
2023-12-20T04:39:19.943Z,73.10
2023-12-20T04:41:48.997Z,74.81
2023-12-20T04:44:17.131Z,75.90
2023-12-20T04:46:45.436Z,78.19
2023-12-20T04:49:13.569Z,81.02
2023-12-20T04:51:41.596Z,79.66
2023-12-20T04:54:09.841Z,81.21
2023-12-20T04:56:37.768Z,80.15
2023-12-20T04:59:05.663Z,81.94
2023-12-20T05:01:33.714Z,83.67
2023-12-20T05:04:01.766Z,83.38
2023-12-20T05:06:29.680Z,84.01
2023-12-20T05:08:57.505Z,87.18
2023-12-20T05:11:25.397Z,85.88
2023-12-20T05:13:53.250Z,87.80
2023-12-20T05:16:21.906Z,86.56
2023-12-20T05:18:51.622Z,87.86
2023-12-20T05:21:19.673Z,90.25
2023-12-20T05:23:47.744Z,88.22
2023-12-20T05:26:15.737Z,89.45
2023-12-20T05:28:43.634Z,89.07
2023-12-20T05:31:11.764Z,88.91
2023-12-20T05:33:39.829Z,89.60
2023-12-20T05:36:12.542Z,90.50
2023-12-20T05:38:40.726Z,90.69
2023-12-20T05:41:08.717Z,91.16
2023-12-20T05:43:36.633Z,92.60
2023-12-20T05:46:04.677Z,93.93
2023-12-20T05:48:32.667Z,94.16
2023-12-20T05:51:00.670Z,95.23
2023-12-20T05:53:28.589Z,94.90
2023-12-20T05:55:56.668Z,95.80
2023-12-20T05:58:24.690Z,96.18
2023-12-20T06:00:52.733Z,96.31
2023-12-20T06:03:22.877Z,96.45
2023-12-20T06:05:51.705Z,97.56
2023-12-20T06:08:20.879Z,97.03
2023-12-20T06:10:50.328Z,97.96
2023-12-20T06:13:18.485Z,97.87
2023-12-20T06:15:46.465Z,97.77
2023-12-20T06:18:14.426Z,98.66
2023-12-20T06:20:42.469Z,98.60
2023-12-20T06:23:10.368Z,98.18
2023-12-20T06:25:38.348Z,99.42
2023-12-20T06:28:06.779Z,99.99
2023-12-20T06:30:35.449Z,100.00
2023-12-20T06:33:03.504Z,100.00
2023-12-20T06:35:33.244Z,99.98
2023-12-20T06:38:02.712Z,100.00
2023-12-20T06:40:30.952Z,99.96
2023-12-20T06:43:05.461Z,100.00
2023-12-20T06:45:40.468Z,100.00
2023-12-20T06:48:08.720Z,100.00
2023-12-20T06:50:42.237Z,99.98
2023-12-20T06:53:10.237Z,99.93
2023-12-20T06:55:39.225Z,100.00
2023-12-20T06:58:08.192Z,100.00
2023-12-20T07:00:36.261Z,100.00
2023-12-20T07:03:05.015Z,100.00
2023-12-20T07:05:34.492Z,100.00
2023-12-20T07:08:02.485Z,100.00
2023-12-20T07:10:30.687Z,100.00
2023-12-20T07:12:58.654Z,100.00
2023-12-20T07:15:28.140Z,100.00
2023-12-20T07:17:56.619Z,100.00
2023-12-20T07:20:24.680Z,100.00
2023-12-20T07:22:52.608Z,100.00
2023-12-20T07:25:21.532Z,100.00
2023-12-20T07:27:49.989Z,100.00
2023-12-20T07:30:18.387Z,100.00
2023-12-20T07:32:46.295Z,100.00
2023-12-20T07:35:14.341Z,100.00
2023-12-20T07:37:42.396Z,100.00
2023-12-20T07:40:10.678Z,100.00
2023-12-20T07:42:38.629Z,100.00
2023-12-20T07:45:06.918Z,100.00
2023-12-20T07:47:34.949Z,100.00
2023-12-20T07:50:04.155Z,100.00
2023-12-20T07:52:32.292Z,100.00
2023-12-20T07:55:00.746Z,100.00
2023-12-20T07:57:31.841Z,100.00
2023-12-20T07:59:59.899Z,100.00
2023-12-20T08:02:27.899Z,100.00
2023-12-20T08:04:55.797Z,100.00
2023-12-20T08:07:23.831Z,100.00
2023-12-20T08:09:53.198Z,100.00
2023-12-20T08:12:21.184Z,100.00
2023-12-20T08:14:49.163Z,100.00
2023-12-20T08:17:17.512Z,100.00
2023-12-20T08:19:45.446Z,100.00
2023-12-20T08:22:13.394Z,100.00
2023-12-20T08:24:41.284Z,100.00
2023-12-20T08:27:11.174Z,100.00
2023-12-20T08:29:39.043Z,100.00
2023-12-20T08:32:07.069Z,100.00
2023-12-20T08:34:35.120Z,100.00
2023-12-20T08:37:03.140Z,100.00
2023-12-20T08:39:31.277Z,100.00
2023-12-20T08:42:01.608Z,100.00
2023-12-20T08:44:29.597Z,100.00
2023-12-20T08:46:58.469Z,100.00
2023-12-20T08:49:27.018Z,100.00
2023-12-20T08:51:55.237Z,100.00
2023-12-20T08:54:23.220Z,100.00
2023-12-20T08:56:51.160Z,100.00
2023-12-20T08:59:20.071Z,100.00
2023-12-20T09:01:49.566Z,100.00
2023-12-20T09:04:17.922Z,100.00
2023-12-20T09:06:46.051Z,100.00
2023-12-20T09:09:17.040Z,100.00
2023-12-20T09:11:47.649Z,100.00
2023-12-20T09:14:15.668Z,100.00
2023-12-20T09:16:43.550Z,100.00
2023-12-20T09:19:11.498Z,100.00
2023-12-20T09:21:39.444Z,100.00
2023-12-20T09:24:07.358Z,100.00
2023-12-20T09:26:35.308Z,100.00
2023-12-20T09:29:03.591Z,100.00
2023-12-20T09:31:31.635Z,100.00
2023-12-20T09:33:59.936Z,100.00
2023-12-20T09:36:28.573Z,100.00
2023-12-20T09:38:56.501Z,100.00
2023-12-20T09:41:26.104Z,100.00
2023-12-20T09:43:59.206Z,100.00
2023-12-20T09:46:31.319Z,100.00
2023-12-20T09:49:01.180Z,100.00
2023-12-20T09:51:30.368Z,100.00
2023-12-20T09:54:00.086Z,100.00
2023-12-20T09:56:28.109Z,100.00
2023-12-20T09:58:56.119Z,100.00
2023-12-20T10:01:25.263Z,100.00
2023-12-20T10:03:56.104Z,100.00
2023-12-20T10:06:24.524Z,100.00
2023-12-20T10:08:53.057Z,100.00
2023-12-20T10:11:20.990Z,100.00
2023-12-20T10:13:49.460Z,100.00
2023-12-20T10:16:17.555Z,100.00
2023-12-20T10:18:46.626Z,100.00
2023-12-20T10:21:14.731Z,100.00
2023-12-20T10:23:42.692Z,100.00
2023-12-20T10:26:11.253Z,100.00
2023-12-20T10:28:39.512Z,100.00
2023-12-20T10:31:07.565Z,100.00
2023-12-20T10:33:36.322Z,100.00
2023-12-20T10:36:04.842Z,100.00
2023-12-20T10:38:32.755Z,100.00
2023-12-20T10:41:05.581Z,100.00
2023-12-20T10:43:34.850Z,100.00
2023-12-20T10:46:04.514Z,100.00
2023-12-20T10:48:34.003Z,100.00
2023-12-20T10:51:02.584Z,100.00
2023-12-20T10:53:30.665Z,100.00
2023-12-20T10:56:02.073Z,100.00
2023-12-20T10:58:33.595Z,100.00
2023-12-20T11:01:05.976Z,100.00
2023-12-20T11:03:40.925Z,100.00
2023-12-20T11:06:19.460Z,100.00
2023-12-20T11:09:10.640Z,100.00
2023-12-20T11:11:45.169Z,100.00
2023-12-20T11:14:22.028Z,100.00
2023-12-20T11:16:54.976Z,100.00
2023-12-20T11:19:23.877Z,100.00
2023-12-20T11:21:51.852Z,100.00
2023-12-20T11:24:25.731Z,100.00
2023-12-20T11:26:57.706Z,100.00
2023-12-20T11:29:52.074Z,100.00
2023-12-20T11:32:26.771Z,100.00
2023-12-20T11:35:17.403Z,100.00
2023-12-20T11:37:48.633Z,100.00
2023-12-20T11:40:18.961Z,100.00
2023-12-20T11:42:51.194Z,100.00
2023-12-20T11:45:28.261Z,100.00
2023-12-20T11:47:59.261Z,100.00
2023-12-20T11:50:27.985Z,100.00
2023-12-20T11:52:56.776Z,100.00
2023-12-20T11:55:25.129Z,100.00
2023-12-20T11:57:53.400Z,100.00
2023-12-20T12:00:22.191Z,100.00
2023-12-20T12:03:00.042Z,100.00
2023-12-20T12:05:29.125Z,100.00
2023-12-20T12:07:57.094Z,100.00
2023-12-20T12:10:25.040Z,100.00
2023-12-20T12:12:53.566Z,100.00
2023-12-20T12:15:22.654Z,100.00
2023-12-20T12:17:55.686Z,100.00
2023-12-20T12:20:24.926Z,100.00
2023-12-20T12:23:06.203Z,100.00
2023-12-20T12:25:42.077Z,100.00
2023-12-20T12:28:12.978Z,100.00
2023-12-20T12:30:46.752Z,100.00
2023-12-20T12:33:24.722Z,100.00
2023-12-20T12:35:56.172Z,100.00
2023-12-20T12:38:25.499Z,100.00
2023-12-20T12:40:57.991Z,100.00
2023-12-20T12:43:26.020Z,100.00
2023-12-20T12:45:55.040Z,100.00
2023-12-20T12:48:24.214Z,100.00
2023-12-20T12:50:54.367Z,100.00
2023-12-20T12:53:25.112Z,100.00
2023-12-20T12:55:53.250Z,100.00
2023-12-20T12:58:21.260Z,100.00
2023-12-20T13:00:49.263Z,100.00
2023-12-20T13:03:18.509Z,100.00
2023-12-20T13:05:47.352Z,100.00
2023-12-20T13:08:16.661Z,100.00
2023-12-20T13:10:44.869Z,100.00
2023-12-20T13:13:15.199Z,100.00
2023-12-20T13:15:52.124Z,100.00
2023-12-20T13:18:20.381Z,100.00
2023-12-20T13:20:48.843Z,100.00
2023-12-20T13:23:22.060Z,100.00
2023-12-20T13:25:50.004Z,100.00
2023-12-20T13:28:18.781Z,100.00
2023-12-20T13:30:46.939Z,100.00
2023-12-20T13:33:16.256Z,100.00
2023-12-20T13:35:46.556Z,100.00
2023-12-20T13:38:15.325Z,100.00
2023-12-20T13:40:43.353Z,100.00
2023-12-20T13:43:13.971Z,100.00
2023-12-20T13:45:42.821Z,100.00
2023-12-20T13:48:10.789Z,100.00
2023-12-20T13:50:39.682Z,100.00
2023-12-20T13:53:07.594Z,100.00
2023-12-20T13:55:35.550Z,100.00
2023-12-20T13:58:32.219Z,100.00
2023-12-20T14:01:00.239Z,100.00
2023-12-20T14:03:28.204Z,100.00
2023-12-20T14:05:56.283Z,100.00
2023-12-20T14:08:24.215Z,100.00
2023-12-20T14:10:52.221Z,100.00
2023-12-20T14:13:20.334Z,100.00
2023-12-20T14:15:50.612Z,100.00
2023-12-20T14:18:19.647Z,100.00
2023-12-20T14:20:49.231Z,100.00
2023-12-20T14:23:17.106Z,100.00
2023-12-20T14:25:52.111Z,100.00
2023-12-20T14:28:21.086Z,100.00
2023-12-20T14:30:50.897Z,100.00
2023-12-20T14:33:21.168Z,100.00
2023-12-20T14:35:49.247Z,100.00
2023-12-20T14:38:17.423Z,100.00
2023-12-20T14:40:45.373Z,100.00
2023-12-20T14:43:13.595Z,100.00
2023-12-20T14:45:41.795Z,100.00
2023-12-20T14:48:09.844Z,100.00
2023-12-20T14:50:41.939Z,100.00
2023-12-20T14:53:09.894Z,100.00
2023-12-20T14:55:40.815Z,100.00
2023-12-20T14:58:08.873Z,100.00
2023-12-20T15:00:36.928Z,100.00
2023-12-20T15:03:08.205Z,100.00
2023-12-20T15:05:39.626Z,100.00
2023-12-20T15:08:08.039Z,100.00
2023-12-20T15:10:38.232Z,100.00
2023-12-20T15:13:07.341Z,100.00
2023-12-20T15:15:36.155Z,100.00
2023-12-20T15:18:05.252Z,100.00
2023-12-20T15:20:41.013Z,100.00
2023-12-20T15:23:12.842Z,100.00
2023-12-20T15:25:41.719Z,100.00
2023-12-20T15:28:10.996Z,100.00
2023-12-20T15:30:39.489Z,100.00
2023-12-20T15:33:07.977Z,100.00
2023-12-20T15:35:36.124Z,100.00
2023-12-20T15:38:06.216Z,100.00
2023-12-20T15:40:34.314Z,100.00
2023-12-20T15:43:02.251Z,100.00
2023-12-20T15:45:32.609Z,100.00
2023-12-20T15:48:00.748Z,100.00
2023-12-20T15:50:28.661Z,100.00
2023-12-20T15:52:57.251Z,100.00
2023-12-20T15:55:25.399Z,100.00
2023-12-20T15:57:55.463Z,100.00
2023-12-20T16:00:24.055Z,100.00
2023-12-20T16:02:53.591Z,100.00
2023-12-20T16:05:21.978Z,100.00
2023-12-20T16:07:51.088Z,100.00
2023-12-20T16:10:19.350Z,100.00
2023-12-20T16:12:47.630Z,100.00
2023-12-20T16:15:15.612Z,100.00
2023-12-20T16:17:44.764Z,100.00
2023-12-20T16:20:14.533Z,100.00
2023-12-20T16:22:42.816Z,100.00
2023-12-20T16:25:12.260Z,100.00
2023-12-20T16:27:40.309Z,100.00
2023-12-20T16:30:08.642Z,100.00
2023-12-20T16:32:39.559Z,100.00
2023-12-20T16:35:07.921Z,100.00
2023-12-20T16:37:39.465Z,100.00
2023-12-20T16:40:08.833Z,100.00
2023-12-20T16:42:40.558Z,100.00
2023-12-20T16:45:10.697Z,100.00
2023-12-20T16:47:38.599Z,100.00
2023-12-20T16:50:08.146Z,100.00
2023-12-20T16:52:39.649Z,100.00
2023-12-20T16:55:11.093Z,100.00
2023-12-20T16:57:39.883Z,100.00
2023-12-20T17:00:08.491Z,100.00
2023-12-20T17:02:36.617Z,100.00
2023-12-20T17:05:04.848Z,100.00
2023-12-20T17:07:32.908Z,100.00
2023-12-20T17:10:01.072Z,100.00
2023-12-20T17:12:29.107Z,100.00
2023-12-20T17:14:56.980Z,100.00
2023-12-20T17:17:24.940Z,100.00
2023-12-20T17:19:53.078Z,100.00
2023-12-20T17:22:26.509Z,100.00
2023-12-20T17:24:54.661Z,100.00
2023-12-20T17:27:22.613Z,100.00
2023-12-20T17:29:50.522Z,100.00
2023-12-20T17:32:18.572Z,100.00
2023-12-20T17:34:46.599Z,100.00
2023-12-20T17:37:14.640Z,100.00
2023-12-20T17:39:44.546Z,100.00
2023-12-20T17:42:14.781Z,100.00
2023-12-20T17:44:43.115Z,100.00
2023-12-20T17:47:13.896Z,100.00
2023-12-20T17:49:44.898Z,100.00
2023-12-20T17:52:13.020Z,100.00
2023-12-20T17:54:42.235Z,100.00
2023-12-20T17:57:10.313Z,100.00
2023-12-20T17:59:43.048Z,100.00
2023-12-20T18:02:13.020Z,100.00
2023-12-20T18:04:44.464Z,100.00
2023-12-20T18:07:13.627Z,100.00
2023-12-20T18:09:41.857Z,100.00
2023-12-20T18:12:14.571Z,100.00
2023-12-20T18:14:42.474Z,100.00
2023-12-20T18:17:10.958Z,100.00
2023-12-20T18:19:39.038Z,100.00
2023-12-20T18:22:07.757Z,100.00
2023-12-20T18:24:35.745Z,100.00
2023-12-20T18:27:04.473Z,100.00
2023-12-20T18:29:32.885Z,100.00
2023-12-20T18:32:01.149Z,100.00
2023-12-20T18:34:31.715Z,100.00
2023-12-20T18:37:03.040Z,100.00
2023-12-20T18:39:31.012Z,100.00
2023-12-20T18:42:52.492Z,100.00
2023-12-20T18:45:20.463Z,100.00
2023-12-20T18:47:48.906Z,100.00
2023-12-20T18:50:17.415Z,100.00
2023-12-20T18:52:45.361Z,100.00
2023-12-20T18:55:13.298Z,100.00
2023-12-20T18:57:41.260Z,100.00
2023-12-20T19:00:11.223Z,100.00
2023-12-20T19:02:39.217Z,100.00
2023-12-20T19:05:07.476Z,100.00
2023-12-20T19:07:35.590Z,100.00
2023-12-20T19:10:03.961Z,100.00
2023-12-20T19:12:32.011Z,100.00
2023-12-20T19:15:00.182Z,100.00
2023-12-20T19:17:29.923Z,100.00
2023-12-20T19:19:58.091Z,100.00
2023-12-20T19:22:30.076Z,100.00
2023-12-20T19:25:06.870Z,100.00
2023-12-20T19:27:41.095Z,100.00
2023-12-20T19:30:09.625Z,100.00
2023-12-20T19:32:37.532Z,100.00
2023-12-20T19:35:08.012Z,100.00
2023-12-20T19:37:36.273Z,100.00
2023-12-20T19:40:06.612Z,100.00
2023-12-20T19:42:45.321Z,100.00
2023-12-20T19:45:14.387Z,100.00
2023-12-20T19:47:49.826Z,100.00
2023-12-20T19:50:23.743Z,100.00
2023-12-20T19:52:51.959Z,100.00
2023-12-20T19:55:19.941Z,100.00
2023-12-20T19:57:48.052Z,100.00
2023-12-20T20:00:20.739Z,100.00
2023-12-20T20:02:52.534Z,99.99
2023-12-20T20:05:21.627Z,99.97
2023-12-20T20:07:49.899Z,99.97
2023-12-20T20:10:19.520Z,100.00
2023-12-20T20:12:47.458Z,99.65
2023-12-20T20:15:15.775Z,99.70
2023-12-20T20:17:43.838Z,99.35
2023-12-20T20:20:11.954Z,99.39
2023-12-20T20:22:42.047Z,99.24
2023-12-20T20:25:10.061Z,98.88
2023-12-20T20:27:38.568Z,99.57
2023-12-20T20:30:07.090Z,99.34
2023-12-20T20:32:37.770Z,99.40
2023-12-20T20:35:06.372Z,99.18
2023-12-20T20:37:34.480Z,98.64
2023-12-20T20:40:03.002Z,98.81
2023-12-20T20:42:34.104Z,99.47
2023-12-20T20:45:02.070Z,98.71
2023-12-20T20:47:30.184Z,98.40
2023-12-20T20:50:01.398Z,98.75
2023-12-20T20:52:29.578Z,98.62
2023-12-20T20:55:00.485Z,98.38
2023-12-20T20:57:30.776Z,98.10
2023-12-20T20:59:58.723Z,98.61
2023-12-20T21:02:26.712Z,98.50
2023-12-20T21:04:54.889Z,98.35
2023-12-20T21:07:26.748Z,98.43
2023-12-20T21:09:56.005Z,98.50
2023-12-20T21:12:27.096Z,98.87
2023-12-20T21:14:57.836Z,98.73
2023-12-20T21:17:25.977Z,98.43
2023-12-20T21:19:54.019Z,98.24
2023-12-20T21:22:22.394Z,97.91
2023-12-20T21:24:50.295Z,98.17
2023-12-20T21:27:18.659Z,98.22
2023-12-20T21:29:46.537Z,97.96
2023-12-20T21:32:14.382Z,97.56
2023-12-20T21:34:42.448Z,97.91
2023-12-20T21:37:10.359Z,98.46
2023-12-20T21:39:38.356Z,98.80
2023-12-20T21:42:06.639Z,98.44
2023-12-20T21:44:34.545Z,98.13
2023-12-20T21:47:02.517Z,98.51
2023-12-20T21:49:30.504Z,98.96
2023-12-20T21:51:58.453Z,98.40
2023-12-20T21:54:26.762Z,98.25
2023-12-20T21:56:55.069Z,98.39
2023-12-20T21:59:26.304Z,98.75
2023-12-20T22:01:54.426Z,98.81
2023-12-20T22:04:22.928Z,98.70
2023-12-20T22:06:50.877Z,98.74
2023-12-20T22:09:18.744Z,99.09
2023-12-20T22:11:46.722Z,98.76
2023-12-20T22:14:14.689Z,99.18
2023-12-20T22:16:42.689Z,99.01
2023-12-20T22:19:10.832Z,98.80
2023-12-20T22:21:38.897Z,99.07
2023-12-20T22:24:06.911Z,99.53
2023-12-20T22:26:34.979Z,98.99
2023-12-20T22:29:03.252Z,99.02
2023-12-20T22:31:31.279Z,98.99
2023-12-20T22:33:59.321Z,98.99
2023-12-20T22:36:27.829Z,99.36
2023-12-20T22:38:57.867Z,98.97
2023-12-20T22:41:25.760Z,98.60
2023-12-20T22:43:53.730Z,98.97
2023-12-20T22:46:21.888Z,99.05
2023-12-20T22:48:49.777Z,99.21
2023-12-20T22:51:17.851Z,98.95
2023-12-20T22:53:45.888Z,99.10
2023-12-20T22:56:13.835Z,99.01
2023-12-20T22:58:41.701Z,99.26
2023-12-20T23:01:09.648Z,99.07
2023-12-20T23:03:38.361Z,98.65
2023-12-20T23:06:06.481Z,98.74
2023-12-20T23:08:34.446Z,99.20
2023-12-20T23:11:02.423Z,99.01
2023-12-20T23:13:30.352Z,98.51
2023-12-20T23:15:58.467Z,98.78
2023-12-20T23:18:26.404Z,99.02
2023-12-20T23:20:54.328Z,98.99
2023-12-20T23:23:22.251Z,98.76
2023-12-20T23:25:50.875Z,98.61
2023-12-20T23:28:18.907Z,98.68
2023-12-20T23:30:46.914Z,99.13
2023-12-20T23:33:16.913Z,99.06
2023-12-20T23:35:45.128Z,98.86
2023-12-20T23:38:12.997Z,98.69
2023-12-20T23:40:41.120Z,98.65
2023-12-20T23:43:09.173Z,98.70
2023-12-20T23:45:37.206Z,98.25
2023-12-20T23:48:05.343Z,97.88
2023-12-20T23:50:33.338Z,98.35
2023-12-20T23:53:01.232Z,98.37
2023-12-20T23:55:29.150Z,98.91
2023-12-20T23:57:58.220Z,98.40
